createdAt,value
2023-05-05T00:01:32.624Z,97872.50
2023-05-05T00:03:59.508Z,97835.34
2023-05-05T00:06:28.559Z,97837.97
2023-05-05T00:08:56.386Z,97816.75
2023-05-05T00:11:23.299Z,97829.81
2023-05-05T00:13:49.960Z,97818.44
2023-05-05T00:16:16.737Z,97806.19
2023-05-05T00:18:44.977Z,97776.97
2023-05-05T00:21:11.674Z,97745.97
2023-05-05T00:23:38.461Z,97738.31
2023-05-05T00:26:05.152Z,97740.19
2023-05-05T00:28:32.035Z,97752.41
2023-05-05T00:30:58.883Z,97791.53
2023-05-05T00:33:25.940Z,97777.75
2023-05-05T00:35:52.672Z,97762.38
2023-05-05T00:38:19.350Z,97751.31
2023-05-05T00:40:46.239Z,97773.16
2023-05-05T00:43:13.132Z,97766.09
2023-05-05T00:45:42.954Z,97739.75
2023-05-05T00:48:10.314Z,97763.19
2023-05-05T00:50:37.577Z,97772.88
2023-05-05T00:53:06.517Z,97769.69
2023-05-05T00:55:35.076Z,97761.13
2023-05-05T00:58:03.316Z,97786.28
2023-05-05T01:00:30.978Z,97758.69
2023-05-05T01:02:58.009Z,97758.22
2023-05-05T01:05:27.468Z,97753.03
2023-05-05T01:08:29.373Z,97763.19
2023-05-05T01:11:04.630Z,97778.38
2023-05-05T01:13:59.307Z,97784.41
2023-05-05T01:16:29.001Z,97772.44
2023-05-05T01:19:08.134Z,97765.72
2023-05-05T01:21:45.827Z,97752.53
2023-05-05T01:24:43.711Z,97722.75
2023-05-05T01:27:34.323Z,97726.88
2023-05-05T01:30:22.875Z,97711.59
2023-05-05T01:32:58.180Z,97723.72
2023-05-05T01:35:32.123Z,97680.59
2023-05-05T01:37:58.750Z,97686.28
2023-05-05T01:40:28.534Z,97688.13
2023-05-05T01:42:56.571Z,97702.13
2023-05-05T01:45:28.667Z,97718.47
2023-05-05T01:47:56.432Z,97733.94
2023-05-05T01:50:24.871Z,97725.06
2023-05-05T01:52:52.901Z,97732.75
2023-05-05T01:55:22.421Z,97718.47
2023-05-05T01:57:50.163Z,97715.56
2023-05-05T02:00:19.563Z,97737.91
2023-05-05T02:02:49.457Z,97739.94
2023-05-05T02:05:19.436Z,97731.41
2023-05-05T02:07:46.820Z,97711.41
2023-05-05T02:10:14.833Z,97698.56
2023-05-05T02:12:42.929Z,97683.38
2023-05-05T02:15:10.911Z,97670.81
2023-05-05T02:17:42.535Z,97671.72
2023-05-05T02:20:12.028Z,97666.88
2023-05-05T02:22:39.065Z,97672.38
2023-05-05T02:25:06.728Z,97670.34
2023-05-05T02:27:35.682Z,97675.47
2023-05-05T02:30:07.562Z,97699.25
2023-05-05T02:32:39.528Z,97692.19
2023-05-05T02:35:33.398Z,97702.91
2023-05-05T02:38:06.208Z,97704.91
2023-05-05T02:40:40.869Z,97688.81
2023-05-05T02:43:11.163Z,97691.25
2023-05-05T02:45:38.560Z,97655.72
2023-05-05T02:48:06.406Z,97644.22
2023-05-05T02:50:37.683Z,97628.59
2023-05-05T02:53:16.439Z,97622.75
2023-05-05T02:55:53.565Z,97630.28
2023-05-05T02:58:31.315Z,97615.28
2023-05-05T03:01:21.994Z,97619.38
2023-05-05T03:04:30.483Z,97638.72
2023-05-05T03:06:59.967Z,97689.59
2023-05-05T03:09:41.893Z,97709.03
2023-05-05T03:12:11.447Z,97715.28
2023-05-05T03:14:55.527Z,97715.13
2023-05-05T03:17:25.866Z,97718.00
2023-05-05T03:19:53.009Z,97715.63
2023-05-05T03:22:20.083Z,97704.38
2023-05-05T03:24:51.699Z,97710.88
2023-05-05T03:27:22.307Z,97705.03
2023-05-05T03:29:49.136Z,97704.91
2023-05-05T03:32:16.562Z,97699.81
2023-05-05T03:34:43.980Z,97673.28
2023-05-05T03:37:10.840Z,97661.53
2023-05-05T03:39:39.407Z,97649.38
2023-05-05T03:42:08.239Z,97626.34
2023-05-05T03:44:36.104Z,97635.91
2023-05-05T03:47:02.791Z,97625.81
2023-05-05T03:49:32.596Z,97624.50
2023-05-05T03:51:59.460Z,97620.66
2023-05-05T03:54:27.173Z,97628.47
2023-05-05T03:56:53.840Z,97623.75
2023-05-05T03:59:20.650Z,97626.75
2023-05-05T04:01:49.143Z,97627.81
2023-05-05T04:04:16.972Z,97619.72
2023-05-05T04:06:43.660Z,97604.69
2023-05-05T04:09:12.325Z,97608.56
2023-05-05T04:11:39.053Z,97604.88
2023-05-05T04:14:06.829Z,97613.78
2023-05-05T04:16:33.885Z,97617.44
2023-05-05T04:19:00.802Z,97611.72
2023-05-05T04:21:27.716Z,97606.97
2023-05-05T04:23:55.263Z,97612.34
2023-05-05T04:26:22.401Z,97616.06
2023-05-05T04:28:49.458Z,97604.09
2023-05-05T04:31:17.982Z,97606.41
2023-05-05T04:33:45.741Z,97598.41
2023-05-05T04:36:13.350Z,97595.38
2023-05-05T04:38:40.791Z,97611.16
2023-05-05T04:41:07.541Z,97589.88
2023-05-05T04:43:36.015Z,97582.34
2023-05-05T04:46:03.017Z,97578.38
2023-05-05T04:48:32.485Z,97591.09
2023-05-05T04:51:04.734Z,97553.31
2023-05-05T04:53:31.971Z,97570.47
2023-05-05T04:56:00.668Z,97580.50
2023-05-05T04:58:28.303Z,97577.19
2023-05-05T05:00:55.609Z,97572.94
2023-05-05T05:03:22.398Z,97579.94
2023-05-05T05:05:49.317Z,97572.41
2023-05-05T05:08:16.818Z,97567.47
2023-05-05T05:10:44.131Z,97588.78
2023-05-05T05:13:12.659Z,97593.59
2023-05-05T05:15:39.955Z,97575.72
2023-05-05T05:18:06.823Z,97548.38
2023-05-05T05:20:33.636Z,97550.66
2023-05-05T05:23:04.677Z,97576.84
2023-05-05T05:25:34.392Z,97570.03
2023-05-05T05:28:08.973Z,97557.41
2023-05-05T05:30:41.198Z,97533.06
2023-05-05T05:33:09.621Z,97547.44
2023-05-05T05:35:36.537Z,97569.53
2023-05-05T05:38:04.236Z,97551.84
2023-05-05T05:40:31.679Z,97556.69
2023-05-05T05:42:59.153Z,97583.84
2023-05-05T05:45:26.879Z,97575.50
2023-05-05T05:47:53.564Z,97615.53
2023-05-05T05:50:20.929Z,97634.28
2023-05-05T05:52:47.775Z,97621.69
2023-05-05T05:55:15.345Z,97611.78
2023-05-05T05:57:42.555Z,97634.50
2023-05-05T06:00:11.196Z,97628.31
2023-05-05T06:02:44.021Z,97645.53
2023-05-05T06:05:14.383Z,97672.09
2023-05-05T06:07:42.492Z,97707.25
2023-05-05T06:10:25.785Z,97714.59
2023-05-05T06:12:55.439Z,97719.31
2023-05-05T06:15:22.568Z,97744.53
2023-05-05T06:17:49.845Z,97742.75
2023-05-05T06:20:16.702Z,97750.16
2023-05-05T06:22:43.414Z,97741.50
2023-05-05T06:25:11.134Z,97721.44
2023-05-05T06:27:38.366Z,97735.78
2023-05-05T06:30:06.903Z,97741.31
2023-05-05T06:32:33.881Z,97769.91
2023-05-05T06:35:00.670Z,97779.47
2023-05-05T06:37:27.745Z,97798.84
2023-05-05T06:39:54.475Z,97799.69
2023-05-05T06:42:21.483Z,97777.44
2023-05-05T06:44:48.124Z,97794.94
2023-05-05T06:47:14.814Z,97816.38
2023-05-05T06:49:41.656Z,97800.44
2023-05-05T06:52:08.513Z,97832.00
2023-05-05T06:54:35.193Z,97806.16
2023-05-05T06:57:02.082Z,97796.88
2023-05-05T06:59:28.782Z,97808.66
2023-05-05T07:01:56.521Z,97830.44
2023-05-05T07:04:23.559Z,97833.81
2023-05-05T07:06:50.244Z,97858.28
2023-05-05T07:09:17.604Z,97843.75
2023-05-05T07:11:44.588Z,97866.16
2023-05-05T07:14:11.405Z,97862.34
2023-05-05T07:16:38.889Z,97877.69
2023-05-05T07:19:06.469Z,97922.28
2023-05-05T07:21:36.732Z,97917.00
2023-05-05T07:24:04.020Z,97929.47
2023-05-05T07:26:31.171Z,97954.59
2023-05-05T07:28:59.115Z,98021.41
2023-05-05T07:31:26.773Z,98027.25
2023-05-05T07:33:53.940Z,97977.28
2023-05-05T07:36:20.866Z,98007.41
2023-05-05T07:38:47.584Z,98031.00
2023-05-05T07:41:14.395Z,98023.09
2023-05-05T07:43:44.765Z,98059.38
2023-05-05T07:46:12.278Z,98017.16
2023-05-05T07:48:41.571Z,98027.44
2023-05-05T07:51:08.833Z,98009.94
2023-05-05T07:53:35.586Z,98015.28
2023-05-05T07:56:02.493Z,98040.06
2023-05-05T07:58:29.213Z,98039.59
2023-05-05T08:00:56.009Z,98064.69
2023-05-05T08:03:24.874Z,98056.72
2023-05-05T08:05:54.711Z,97989.53
2023-05-05T08:08:25.038Z,98052.09
2023-05-05T08:10:53.274Z,98036.91
2023-05-05T08:13:20.610Z,98036.22
2023-05-05T08:15:47.527Z,98060.16
2023-05-05T08:18:14.911Z,98015.00
2023-05-05T08:20:42.033Z,98068.50
2023-05-05T08:23:08.813Z,98074.94
2023-05-05T08:25:35.566Z,98082.53
2023-05-05T08:28:02.372Z,98049.50
2023-05-05T08:30:29.281Z,98060.53
2023-05-05T08:32:56.572Z,98063.50
2023-05-05T08:35:23.459Z,98069.22
2023-05-05T08:37:51.748Z,98028.59
2023-05-05T08:40:21.159Z,98066.78
2023-05-05T08:42:48.182Z,98037.75
2023-05-05T08:45:16.041Z,98063.91
2023-05-05T08:47:43.630Z,98052.97
2023-05-05T08:50:11.458Z,98058.63
2023-05-05T08:52:40.713Z,98074.44
2023-05-05T08:55:14.867Z,98086.72
2023-05-05T08:57:48.097Z,98077.25
2023-05-05T09:00:18.328Z,98098.88
2023-05-05T09:02:46.688Z,98085.53
2023-05-05T09:05:13.773Z,98073.47
2023-05-05T09:07:41.653Z,98090.38
2023-05-05T09:10:09.336Z,98070.28
2023-05-05T09:12:36.305Z,98099.81
2023-05-05T09:15:04.216Z,98097.41
2023-05-05T09:17:31.851Z,98104.94
2023-05-05T09:20:07.268Z,98099.94
2023-05-05T09:22:38.069Z,98115.03
2023-05-05T09:25:06.880Z,98120.81
2023-05-05T09:27:41.807Z,98120.59
2023-05-05T09:30:10.121Z,98120.53
2023-05-05T09:32:51.202Z,98115.16
2023-05-05T09:35:19.714Z,98102.59
2023-05-05T09:37:46.760Z,98132.56
2023-05-05T09:40:15.625Z,98113.25
2023-05-05T09:42:42.485Z,98107.94
2023-05-05T09:45:18.456Z,98118.50
2023-05-05T09:47:46.360Z,98112.50
2023-05-05T09:50:18.986Z,98124.22
2023-05-05T09:52:56.292Z,98121.03
2023-05-05T09:55:24.188Z,98126.72
2023-05-05T09:57:50.992Z,98127.84
2023-05-05T10:00:18.092Z,98125.13
2023-05-05T10:02:45.705Z,98128.91
2023-05-05T10:05:17.478Z,98130.69
2023-05-05T10:07:46.614Z,98137.38
2023-05-05T10:10:15.652Z,98123.25
2023-05-05T10:12:43.303Z,98132.91
2023-05-05T10:15:11.445Z,98140.94
2023-05-05T10:18:02.167Z,98136.44
2023-05-05T10:20:33.508Z,98136.84
2023-05-05T10:23:05.564Z,98130.41
2023-05-05T10:25:39.691Z,98136.38
2023-05-05T10:28:07.075Z,98134.69
2023-05-05T10:30:37.116Z,98130.47
2023-05-05T10:33:27.288Z,98133.66
2023-05-05T10:36:01.975Z,98142.88
2023-05-05T10:38:32.583Z,98123.41
2023-05-05T10:41:04.512Z,98120.31
2023-05-05T10:43:32.168Z,98118.94
2023-05-05T10:45:59.518Z,98113.16
2023-05-05T10:48:39.801Z,98117.72
2023-05-05T10:51:10.564Z,98112.00
2023-05-05T10:53:48.998Z,98124.31
2023-05-05T10:56:22.451Z,98111.38
2023-05-05T10:58:58.846Z,98106.81
2023-05-05T11:01:34.219Z,98099.25
2023-05-05T11:04:20.748Z,98083.50
2023-05-05T11:07:13.439Z,98094.97
2023-05-05T11:09:55.917Z,98076.59
2023-05-05T11:12:22.695Z,98085.84
2023-05-05T11:15:24.280Z,98084.56
2023-05-05T11:17:51.292Z,98079.16
2023-05-05T11:20:18.030Z,98066.34
2023-05-05T11:23:02.755Z,98064.25
2023-05-05T11:25:35.870Z,98061.25
2023-05-05T11:28:19.449Z,98055.19
2023-05-05T11:30:55.373Z,98071.66
2023-05-05T11:33:31.616Z,98063.97
2023-05-05T11:36:06.657Z,98063.75
2023-05-05T11:38:36.623Z,98054.88
2023-05-05T11:41:26.145Z,98058.53
2023-05-05T11:44:09.833Z,98057.91
2023-05-05T11:46:36.718Z,98054.66
2023-05-05T11:49:03.740Z,98063.88
2023-05-05T11:51:31.116Z,98060.34
2023-05-05T11:53:59.131Z,98064.56
2023-05-05T11:56:26.140Z,98052.16
2023-05-05T11:59:08.020Z,98049.78
2023-05-05T12:01:35.273Z,98057.00
2023-05-05T12:04:02.422Z,98048.59
2023-05-05T12:06:32.812Z,98058.16
2023-05-05T12:09:00.893Z,98049.06
2023-05-05T12:11:27.592Z,98050.97
2023-05-05T12:14:12.814Z,98053.53
2023-05-05T12:16:39.845Z,98053.56
2023-05-05T12:19:08.148Z,98050.63
2023-05-05T12:21:35.571Z,98048.31
2023-05-05T12:24:02.479Z,98041.31
2023-05-05T12:26:31.623Z,98041.72
2023-05-05T12:29:00.431Z,98041.84
2023-05-05T12:31:40.557Z,98043.03
2023-05-05T12:34:09.964Z,98036.16
2023-05-05T12:36:37.678Z,98039.66
2023-05-05T12:39:05.529Z,98037.16
2023-05-05T12:41:33.063Z,98043.47
2023-05-05T12:44:01.536Z,98031.00
2023-05-05T12:46:29.874Z,98024.56
2023-05-05T12:49:05.582Z,98031.81
2023-05-05T12:51:33.820Z,98030.69
2023-05-05T12:54:06.873Z,98029.25
2023-05-05T12:56:40.877Z,98022.38
2023-05-05T12:59:09.067Z,98022.41
2023-05-05T13:01:37.275Z,98023.81
2023-05-05T13:04:08.970Z,98027.63
2023-05-05T13:06:36.316Z,98016.75
2023-05-05T13:09:03.743Z,98005.78
2023-05-05T13:11:30.582Z,98020.94
2023-05-05T13:13:57.267Z,98021.28
2023-05-05T13:16:24.055Z,98009.00
2023-05-05T13:18:51.304Z,98013.72
2023-05-05T13:21:18.105Z,98021.25
2023-05-05T13:23:45.721Z,98007.44
2023-05-05T13:26:13.687Z,98014.59
2023-05-05T13:28:41.382Z,98004.56
2023-05-05T13:31:08.537Z,98007.22
2023-05-05T13:33:35.728Z,98000.19
2023-05-05T13:36:03.501Z,97998.53
2023-05-05T13:38:32.468Z,98000.97
2023-05-05T13:41:00.180Z,97991.88
2023-05-05T13:43:26.871Z,97990.63
2023-05-05T13:45:53.871Z,97994.16
2023-05-05T13:48:20.791Z,97993.19
2023-05-05T13:50:47.516Z,97993.69
2023-05-05T13:53:14.555Z,98000.13
2023-05-05T13:55:42.205Z,97996.66
2023-05-05T13:58:09.394Z,97990.59
2023-05-05T14:00:36.311Z,98000.06
2023-05-05T14:03:03.050Z,97983.47
2023-05-05T14:05:29.864Z,97984.28
2023-05-05T14:07:56.569Z,97977.34
2023-05-05T14:10:23.356Z,97968.19
2023-05-05T14:12:50.356Z,97968.94
2023-05-05T14:15:17.184Z,97984.81
2023-05-05T14:17:44.381Z,97982.41
2023-05-05T14:20:11.715Z,97985.84
2023-05-05T14:22:38.436Z,97984.72
2023-05-05T14:25:05.995Z,97977.84
2023-05-05T14:27:32.892Z,97972.44
2023-05-05T14:29:59.524Z,97985.47
2023-05-05T14:32:26.246Z,97976.16
2023-05-05T14:34:52.982Z,97963.47
2023-05-05T14:37:19.628Z,97958.47
2023-05-05T14:39:46.309Z,97943.28
2023-05-05T14:42:13.292Z,97941.13
2023-05-05T14:44:39.915Z,97945.97
2023-05-05T14:47:06.604Z,97928.34
2023-05-05T14:49:33.301Z,97929.44
2023-05-05T14:52:00.007Z,97926.50
2023-05-05T14:54:28.818Z,97925.44
2023-05-05T14:56:56.415Z,97922.72
2023-05-05T14:59:23.123Z,97915.47
2023-05-05T15:01:50.053Z,97929.34
2023-05-05T15:04:16.763Z,97925.50
2023-05-05T15:06:43.410Z,97915.56
2023-05-05T15:09:10.073Z,97916.41
2023-05-05T15:11:36.763Z,97906.38
2023-05-05T15:14:03.448Z,97910.44
2023-05-05T15:16:30.210Z,97907.78
2023-05-05T15:18:56.888Z,97900.72
2023-05-05T15:21:23.542Z,97907.31
2023-05-05T15:23:50.366Z,97914.25
2023-05-05T15:26:17.009Z,97905.16
2023-05-05T15:28:43.961Z,97910.53
2023-05-05T15:31:10.676Z,97913.56
2023-05-05T15:33:37.444Z,97905.94
2023-05-05T15:36:04.373Z,97911.34
2023-05-05T15:38:31.451Z,97908.69
2023-05-05T15:40:58.221Z,97918.31
2023-05-05T15:43:25.083Z,97925.84
2023-05-05T15:45:53.981Z,97916.91
2023-05-05T15:48:20.649Z,97920.16
2023-05-05T15:50:47.454Z,97926.19
2023-05-05T15:53:14.176Z,97924.69
2023-05-05T15:55:40.935Z,97904.81
2023-05-05T15:58:07.862Z,97913.69
2023-05-05T16:00:34.528Z,97902.97
2023-05-05T16:03:01.620Z,97913.47
2023-05-05T16:05:28.426Z,97882.59
2023-05-05T16:07:55.110Z,97880.84
2023-05-05T16:10:21.786Z,97938.50
2023-05-05T16:12:48.844Z,97957.69
2023-05-05T16:15:15.591Z,97949.91
2023-05-05T16:17:42.426Z,97962.41
2023-05-05T16:20:09.795Z,97946.34
2023-05-05T16:22:37.102Z,97946.03
2023-05-05T16:25:04.124Z,97937.41
2023-05-05T16:27:30.824Z,97938.50
2023-05-05T16:29:59.174Z,97925.19
2023-05-05T16:32:26.565Z,97939.97
2023-05-05T16:34:53.219Z,97927.56
2023-05-05T16:37:19.848Z,97922.28
2023-05-05T16:39:46.558Z,97931.63
2023-05-05T16:44:40.600Z,97943.19
2023-05-05T16:47:07.371Z,97933.22
2023-05-05T16:49:34.070Z,97941.56
2023-05-05T16:52:00.851Z,97929.50
2023-05-05T16:54:27.522Z,97924.22
2023-05-05T16:56:55.083Z,97912.66
2023-05-05T16:59:21.754Z,97932.94
2023-05-05T17:01:48.533Z,97923.66
2023-05-05T17:04:15.324Z,97922.56
2023-05-05T17:06:41.963Z,97931.56
2023-05-05T17:09:08.622Z,97950.28
2023-05-05T17:11:36.108Z,97933.75
2023-05-05T17:14:02.731Z,97942.03
2023-05-05T17:16:29.523Z,97944.25
2023-05-05T17:18:56.529Z,97960.81
2023-05-05T17:21:23.574Z,97951.59
2023-05-05T17:23:50.530Z,97957.44
2023-05-05T17:26:17.204Z,97974.03
2023-05-05T17:28:43.831Z,97967.50
2023-05-05T17:31:10.557Z,97963.16
2023-05-05T17:33:37.266Z,97972.78
2023-05-05T17:36:04.155Z,97961.41
2023-05-05T17:38:30.930Z,97951.69
2023-05-05T17:40:57.575Z,97957.19
2023-05-05T17:43:24.285Z,97949.09
2023-05-05T17:45:51.056Z,97950.44
2023-05-05T17:48:17.807Z,97950.03
2023-05-05T17:50:45.025Z,97947.53
2023-05-05T17:53:12.065Z,97945.50
2023-05-05T17:55:38.744Z,97933.66
2023-05-05T17:58:05.383Z,97938.94
2023-05-05T18:00:32.075Z,97939.44
2023-05-05T18:02:58.777Z,97943.19
2023-05-05T18:05:25.509Z,97940.69
2023-05-05T18:07:52.169Z,97937.03
2023-05-05T18:10:18.901Z,97946.25
2023-05-05T18:12:45.873Z,97946.78
2023-05-05T18:15:13.216Z,97933.50
2023-05-05T18:17:39.838Z,97894.03
2023-05-05T18:20:07.416Z,97864.84
2023-05-05T18:22:34.554Z,97851.16
2023-05-05T18:25:01.192Z,97854.91
2023-05-05T18:27:28.406Z,97845.66
2023-05-05T18:29:55.255Z,97834.59
2023-05-05T18:32:22.035Z,97837.16
2023-05-05T18:34:48.862Z,97827.53
2023-05-05T18:37:15.726Z,97835.34
2023-05-05T18:39:44.061Z,97820.03
2023-05-05T18:42:13.110Z,97812.00
2023-05-05T18:44:39.968Z,97808.19
2023-05-05T18:47:07.099Z,97786.41
2023-05-05T18:49:34.095Z,97782.78
2023-05-05T18:52:01.123Z,97782.53
2023-05-05T18:54:27.813Z,97766.19
2023-05-05T18:56:54.580Z,97769.25
2023-05-05T18:59:21.965Z,97767.81
2023-05-05T19:01:48.654Z,97769.19
2023-05-05T19:04:29.525Z,97765.69
2023-05-05T19:06:57.394Z,97753.84
2023-05-05T19:09:24.088Z,97745.72
2023-05-05T19:11:51.109Z,97745.38
2023-05-05T19:14:17.960Z,97744.00
2023-05-05T19:16:44.908Z,97754.44
2023-05-05T19:19:11.667Z,97755.16
2023-05-05T19:21:39.013Z,97750.47
2023-05-05T19:24:08.361Z,97735.28
2023-05-05T19:26:35.311Z,97731.84
2023-05-05T19:29:02.049Z,97732.41
2023-05-05T19:31:30.910Z,97718.84
2023-05-05T19:34:00.902Z,97727.50
2023-05-05T19:36:28.230Z,97727.84
2023-05-05T19:38:55.994Z,97729.97
2023-05-05T19:41:22.924Z,97707.25
2023-05-05T19:43:50.179Z,97704.94
2023-05-05T19:46:17.327Z,97706.41
2023-05-05T19:48:44.490Z,97679.06
2023-05-05T19:51:11.135Z,97689.63
2023-05-05T19:53:40.162Z,97684.88
2023-05-05T19:56:06.971Z,97681.91
2023-05-05T19:58:59.438Z,97677.91
2023-05-05T20:01:27.892Z,97670.59
2023-05-05T20:03:56.489Z,97667.06
2023-05-05T20:06:23.905Z,97677.31
2023-05-05T20:08:50.811Z,97660.53
2023-05-05T20:11:17.949Z,97655.72
2023-05-05T20:13:44.695Z,97656.31
2023-05-05T20:16:12.082Z,97643.84
2023-05-05T20:18:38.931Z,97642.22
2023-05-05T20:21:06.099Z,97638.13
2023-05-05T20:23:32.941Z,97619.72
2023-05-05T20:26:00.844Z,97615.53
2023-05-05T20:28:27.630Z,97587.75
2023-05-05T20:30:54.326Z,97582.25
2023-05-05T20:33:20.996Z,97585.75
2023-05-05T20:35:47.697Z,97584.25
2023-05-05T20:38:14.542Z,97579.03
2023-05-05T20:40:42.150Z,97576.75
2023-05-05T20:43:08.847Z,97578.03
2023-05-05T20:45:35.756Z,97566.50
2023-05-05T20:48:02.478Z,97521.06
2023-05-05T20:50:29.157Z,97521.16
2023-05-05T20:52:55.961Z,97530.00
2023-05-05T20:55:22.723Z,97510.38
2023-05-05T20:57:49.451Z,97490.91
2023-05-05T21:00:16.488Z,97486.50
2023-05-05T21:02:43.437Z,97490.22
2023-05-05T21:05:10.429Z,97482.94
2023-05-05T21:07:37.232Z,97496.22
2023-05-05T21:10:04.782Z,97488.84
2023-05-05T21:12:31.674Z,97488.31
2023-05-05T21:14:58.945Z,97470.22
2023-05-05T21:17:29.464Z,97422.28
2023-05-05T21:19:56.980Z,97423.06
2023-05-05T21:22:23.856Z,97399.94
2023-05-05T21:24:50.862Z,97391.00
2023-05-05T21:27:17.757Z,97396.91
2023-05-05T21:29:44.468Z,97385.66
2023-05-05T21:32:11.692Z,97402.53
2023-05-05T21:34:39.411Z,97411.03
2023-05-05T21:37:06.669Z,97404.63
2023-05-05T21:39:33.695Z,97408.84
2023-05-05T21:42:01.052Z,97405.91
2023-05-05T21:44:28.411Z,97400.25
2023-05-05T21:46:55.588Z,97410.69
2023-05-05T21:49:22.441Z,97436.50
2023-05-05T21:51:50.658Z,97443.91
2023-05-05T21:54:17.449Z,97467.25
2023-05-05T21:56:44.218Z,97442.72
2023-05-05T21:59:11.241Z,97412.03
2023-05-05T22:01:38.005Z,97415.38
2023-05-05T22:04:04.802Z,97424.22
2023-05-05T22:06:32.645Z,97436.41
2023-05-05T22:08:59.566Z,97438.50
2023-05-05T22:11:26.412Z,97445.38
2023-05-05T22:13:53.122Z,97451.47
2023-05-05T22:16:19.928Z,97446.25
2023-05-05T22:18:47.007Z,97449.97
2023-05-05T22:21:13.889Z,97450.59
2023-05-05T22:23:42.084Z,97444.59
2023-05-05T22:26:09.327Z,97449.72
2023-05-05T22:28:36.528Z,97448.31
2023-05-05T22:31:03.253Z,97445.38
2023-05-05T22:33:30.089Z,97447.00
2023-05-05T22:35:57.237Z,97439.28
2023-05-05T22:38:23.946Z,97438.53
2023-05-05T22:40:50.713Z,97427.41
2023-05-05T22:43:17.583Z,97413.00
2023-05-05T22:45:44.497Z,97420.09
2023-05-05T22:48:11.455Z,97413.00
2023-05-05T22:50:38.185Z,97403.34
2023-05-05T22:53:04.900Z,97384.59
2023-05-05T22:55:31.650Z,97367.81
2023-05-05T22:57:58.297Z,97361.59
2023-05-05T23:00:25.330Z,97341.03
2023-05-05T23:02:52.373Z,97344.19
2023-05-05T23:05:19.049Z,97345.84
2023-05-05T23:07:45.941Z,97349.31
2023-05-05T23:10:12.647Z,97343.56
2023-05-05T23:12:39.426Z,97326.78
2023-05-05T23:15:06.818Z,97303.16
2023-05-05T23:17:33.613Z,97291.41
2023-05-05T23:20:00.326Z,97300.47
2023-05-05T23:22:27.060Z,97285.00
2023-05-05T23:24:53.819Z,97275.44
2023-05-05T23:27:20.445Z,97263.03
2023-05-05T23:29:47.199Z,97259.28
2023-05-05T23:32:13.903Z,97280.88
2023-05-05T23:34:40.549Z,97295.66
2023-05-05T23:37:07.230Z,97281.19
2023-05-05T23:39:34.747Z,97270.66
2023-05-05T23:42:01.557Z,97262.03
2023-05-05T23:44:28.157Z,97275.53
2023-05-05T23:46:54.846Z,97269.88
2023-05-05T23:49:21.631Z,97255.94
2023-05-05T23:51:48.400Z,97238.31
2023-05-05T23:54:15.031Z,97220.25
2023-05-05T23:56:42.811Z,97207.84
2023-05-05T23:59:09.531Z,97181.44
